createdAt,value
2018-05-11T00:01:41.026Z,68.42
2018-05-11T00:04:08.538Z,70.34
2018-05-11T00:06:36.043Z,70.57
2018-05-11T00:09:03.553Z,72.40
2018-05-11T00:11:31.047Z,71.81
2018-05-11T00:13:58.564Z,71.40
2018-05-11T00:16:26.096Z,72.77
2018-05-11T00:18:53.677Z,72.02
2018-05-11T00:21:21.180Z,72.15
2018-05-11T00:23:48.674Z,71.62
2018-05-11T00:26:16.191Z,71.63
2018-05-11T00:28:43.722Z,72.06
2018-05-11T00:31:11.258Z,72.19
2018-05-11T00:33:38.755Z,72.65
2018-05-11T00:36:06.295Z,73.60
2018-05-11T00:38:33.810Z,72.52
2018-05-11T00:41:01.352Z,73.45
2018-05-11T00:43:28.851Z,72.26
2018-05-11T00:45:56.439Z,73.87
2018-05-11T00:48:23.956Z,74.50
2018-05-11T00:50:51.466Z,74.52
2018-05-11T00:53:19.013Z,74.43
2018-05-11T00:55:49.474Z,74.89
2018-05-11T00:58:17.038Z,75.02
2018-05-11T01:00:44.578Z,75.38
2018-05-11T01:03:12.088Z,75.36
2018-05-11T01:05:39.582Z,75.61
2018-05-11T01:08:07.084Z,74.78
2018-05-11T01:10:34.599Z,75.19
2018-05-11T01:13:02.107Z,74.54
2018-05-11T01:15:29.613Z,74.08
2018-05-11T01:17:57.107Z,74.03
2018-05-11T01:20:24.643Z,73.83
2018-05-11T01:22:52.201Z,73.25
2018-05-11T01:25:19.750Z,74.44
2018-05-11T01:27:47.284Z,74.55
2018-05-11T01:30:14.823Z,73.58
2018-05-11T01:32:42.324Z,74.14
2018-05-11T01:35:09.864Z,73.67
2018-05-11T01:37:37.407Z,73.54
2018-05-11T01:40:04.912Z,73.32
2018-05-11T01:42:32.466Z,72.34
2018-05-11T01:44:59.965Z,71.52
2018-05-11T01:47:27.470Z,70.70
2018-05-11T01:49:54.967Z,71.03
2018-05-11T01:52:22.507Z,70.54
2018-05-11T01:54:50.008Z,71.07
2018-05-11T01:57:17.552Z,71.00
2018-05-11T01:59:45.051Z,71.71
2018-05-11T02:02:12.555Z,71.48
2018-05-11T02:04:40.092Z,71.27
2018-05-11T02:07:07.603Z,71.60
2018-05-11T02:09:35.139Z,71.19
2018-05-11T02:12:02.635Z,70.96
2018-05-11T02:14:30.194Z,70.79
2018-05-11T02:16:57.740Z,71.14
2018-05-11T02:19:25.236Z,71.72
2018-05-11T02:21:52.731Z,71.35
2018-05-11T02:24:20.237Z,70.71
2018-05-11T02:26:47.775Z,71.09
2018-05-11T02:29:15.280Z,71.02
2018-05-11T02:31:42.789Z,70.78
2018-05-11T02:34:10.362Z,70.80
2018-05-11T02:36:37.861Z,70.96
2018-05-11T02:39:05.378Z,72.37
2018-05-11T02:41:32.885Z,72.64
2018-05-11T02:44:00.440Z,72.25
2018-05-11T02:46:27.949Z,72.33
2018-05-11T02:48:55.451Z,73.33
2018-05-11T02:51:22.951Z,73.49
2018-05-11T02:53:50.465Z,73.64
2018-05-11T02:56:17.969Z,74.59
2018-05-11T02:58:45.479Z,74.60
2018-05-11T03:01:12.983Z,74.61
2018-05-11T03:03:40.488Z,73.19
2018-05-11T03:06:08.000Z,72.45
2018-05-11T03:08:35.519Z,73.39
2018-05-11T03:11:03.026Z,73.57
2018-05-11T03:13:30.535Z,72.42
2018-05-11T03:15:58.051Z,72.02
2018-05-11T03:18:25.651Z,71.94
2018-05-11T03:20:53.127Z,73.16
2018-05-11T03:23:20.628Z,73.54
2018-05-11T03:25:48.130Z,73.67
2018-05-11T03:28:15.687Z,74.32
2018-05-11T03:30:43.220Z,74.17
2018-05-11T03:33:10.722Z,73.47
2018-05-11T03:35:38.274Z,73.08
2018-05-11T03:38:05.778Z,74.23
2018-05-11T03:40:33.287Z,74.59
2018-05-11T03:43:00.796Z,74.14
2018-05-11T03:45:28.298Z,74.05
2018-05-11T03:47:55.908Z,74.09
2018-05-11T03:50:23.362Z,73.45
2018-05-11T03:52:50.872Z,73.21
2018-05-11T03:55:18.389Z,73.46
2018-05-11T03:57:45.890Z,73.81
2018-05-11T04:00:13.442Z,73.03
2018-05-11T04:02:52.775Z,73.64
2018-05-11T04:05:32.161Z,73.21
2018-05-11T04:08:12.820Z,73.42
2018-05-11T04:10:40.319Z,72.78
2018-05-11T04:13:07.866Z,73.06
2018-05-11T04:15:35.339Z,72.89
2018-05-11T04:18:02.900Z,72.59
2018-05-11T04:20:31.185Z,72.90
2018-05-11T04:24:52.023Z,73.22
2018-05-11T04:27:19.525Z,73.89
2018-05-11T04:29:47.040Z,73.85
2018-05-11T04:32:14.555Z,73.75
2018-05-11T04:34:42.055Z,73.84
2018-05-11T04:37:09.652Z,72.73
2018-05-11T04:39:37.091Z,72.40
2018-05-11T04:42:04.591Z,71.65
2018-05-11T04:44:32.143Z,70.58
2018-05-11T04:46:59.659Z,69.62
2018-05-11T04:49:27.172Z,69.71
2018-05-11T04:51:54.715Z,68.31
2018-05-11T04:54:22.231Z,67.97
2018-05-11T04:56:49.739Z,67.85
2018-05-11T04:59:17.250Z,68.31
2018-05-11T05:01:44.810Z,68.25
2018-05-11T05:04:12.344Z,68.36
2018-05-11T05:06:39.885Z,67.68
2018-05-11T05:09:07.390Z,67.73
2018-05-11T05:11:34.897Z,68.23
2018-05-11T05:14:02.412Z,67.73
2018-05-11T05:16:30.082Z,67.84
2018-05-11T05:18:57.591Z,68.20
2018-05-11T05:21:25.153Z,67.10
2018-05-11T05:23:52.659Z,65.29
2018-05-11T05:26:21.141Z,66.19
2018-05-11T05:28:48.658Z,66.76
2018-05-11T05:31:16.238Z,67.07
2018-05-11T05:33:43.735Z,66.51
2018-05-11T05:36:11.337Z,66.02
2018-05-11T05:38:39.087Z,65.37
2018-05-11T05:41:06.613Z,63.39
2018-05-11T05:43:34.168Z,62.75
2018-05-11T05:46:01.678Z,63.44
2018-05-11T05:48:29.253Z,63.09
2018-05-11T05:50:56.767Z,62.41
2018-05-11T05:53:24.291Z,64.22
2018-05-11T05:55:51.830Z,64.62
2018-05-11T05:58:19.357Z,64.04
2018-05-11T06:00:46.878Z,63.98
2018-05-11T06:03:14.372Z,63.66
2018-05-11T06:05:41.917Z,63.56
2018-05-11T06:08:09.488Z,63.11
2018-05-11T06:10:36.999Z,63.07
2018-05-11T06:13:04.496Z,63.36
2018-05-11T06:15:32.013Z,63.51
2018-05-11T06:17:59.536Z,63.49
2018-05-11T06:20:27.115Z,64.13
2018-05-11T06:22:54.627Z,63.98
2018-05-11T06:25:22.151Z,63.58
2018-05-11T06:27:49.663Z,63.87
2018-05-11T06:30:17.215Z,63.08
2018-05-11T06:32:44.724Z,63.46
2018-05-11T06:35:12.261Z,62.69
2018-05-11T06:37:39.771Z,62.79
2018-05-11T06:40:07.365Z,61.67
2018-05-11T06:42:34.872Z,60.71
2018-05-11T06:45:02.380Z,60.69
2018-05-11T06:47:29.915Z,61.63
2018-05-11T06:49:57.419Z,62.41
2018-05-11T06:52:24.931Z,61.50
2018-05-11T06:54:52.486Z,62.87
2018-05-11T06:57:19.988Z,63.11
2018-05-11T06:59:47.496Z,61.83
2018-05-11T07:02:15.033Z,61.84
2018-05-11T07:04:42.535Z,63.00
2018-05-11T07:07:10.063Z,63.02
2018-05-11T07:09:37.564Z,63.27
2018-05-11T07:12:05.398Z,62.30
2018-05-11T07:14:32.921Z,63.59
2018-05-11T07:17:00.585Z,63.25
2018-05-11T07:19:28.179Z,62.19
2018-05-11T07:21:55.678Z,61.21
2018-05-11T07:24:23.170Z,61.14
2018-05-11T07:26:50.671Z,60.94
2018-05-11T07:29:18.281Z,60.53
2018-05-11T07:31:45.796Z,59.95
2018-05-11T07:34:13.296Z,59.76
2018-05-11T07:36:40.790Z,58.37
2018-05-11T07:39:08.452Z,57.71
2018-05-11T07:41:35.974Z,55.50
2018-05-11T07:44:03.536Z,55.83
2018-05-11T07:46:31.050Z,57.16
2018-05-11T07:48:58.585Z,57.45
2018-05-11T07:51:26.088Z,56.94
2018-05-11T07:53:53.593Z,56.30
2018-05-11T07:56:21.101Z,55.94
2018-05-11T07:58:48.749Z,55.38
2018-05-11T08:01:16.250Z,56.12
2018-05-11T08:03:43.753Z,54.80
2018-05-11T08:06:11.250Z,55.31
2018-05-11T08:08:38.762Z,55.71
2018-05-11T08:11:06.275Z,56.77
2018-05-11T08:13:33.774Z,55.35
2018-05-11T08:16:01.275Z,54.33
2018-05-11T08:18:28.775Z,54.06
2018-05-11T08:20:56.333Z,49.91
2018-05-11T08:23:23.831Z,45.66
2018-05-11T08:25:51.346Z,47.84
2018-05-11T08:28:18.846Z,48.74
2018-05-11T08:30:46.365Z,46.18
2018-05-11T08:33:13.883Z,42.84
2018-05-11T08:35:41.417Z,40.41
2018-05-11T08:38:08.917Z,40.47
2018-05-11T08:40:36.452Z,39.22
2018-05-11T08:43:03.973Z,37.81
2018-05-11T08:45:31.488Z,35.95
2018-05-11T08:47:59.039Z,36.67
2018-05-11T08:50:26.516Z,39.32
2018-05-11T08:52:54.024Z,41.26
2018-05-11T08:55:21.531Z,38.88
2018-05-11T08:57:49.129Z,36.98
2018-05-11T09:00:18.082Z,37.85
2018-05-11T09:02:45.606Z,39.45
2018-05-11T09:05:13.128Z,39.77
2018-05-11T09:07:40.643Z,40.65
2018-05-11T09:10:08.170Z,41.46
2018-05-11T09:12:35.711Z,41.69
2018-05-11T09:15:03.299Z,41.50
2018-05-11T09:17:30.835Z,43.97
2018-05-11T09:19:58.489Z,44.12
2018-05-11T09:22:25.995Z,44.69
2018-05-11T09:24:53.509Z,44.64
2018-05-11T09:27:21.031Z,46.52
2018-05-11T09:29:48.527Z,45.43
2018-05-11T09:32:16.044Z,45.51
2018-05-11T09:34:43.551Z,46.24
2018-05-11T09:37:11.185Z,45.63
2018-05-11T09:39:38.738Z,45.87
2018-05-11T09:42:06.224Z,44.62
2018-05-11T09:44:33.731Z,44.21
2018-05-11T09:47:01.648Z,44.41
2018-05-11T09:49:29.174Z,40.96
2018-05-11T09:51:56.679Z,43.83
2018-05-11T09:54:24.189Z,43.26
2018-05-11T09:56:51.699Z,40.31
2018-05-11T09:59:19.216Z,36.77
2018-05-11T10:01:46.769Z,36.70
2018-05-11T10:04:14.291Z,33.38
2018-05-11T10:06:41.819Z,32.58
2018-05-11T10:09:09.332Z,36.38
2018-05-11T10:11:36.855Z,41.05
2018-05-11T10:14:04.368Z,40.65
2018-05-11T10:16:31.919Z,37.97
2018-05-11T10:18:59.432Z,38.84
2018-05-11T10:21:26.975Z,35.84
2018-05-11T10:23:54.488Z,33.10
2018-05-11T10:26:21.996Z,33.13
2018-05-11T10:28:49.565Z,35.48
2018-05-11T10:31:17.105Z,38.23
2018-05-11T10:33:44.640Z,40.64
2018-05-11T10:36:12.162Z,41.17
2018-05-11T10:38:39.660Z,40.43
2018-05-11T10:41:07.520Z,38.25
2018-05-11T10:43:35.029Z,35.14
2018-05-11T10:46:02.572Z,32.89
2018-05-11T10:48:30.134Z,30.19
2018-05-11T10:50:57.642Z,29.39
2018-05-11T10:53:25.146Z,32.21
2018-05-11T10:55:52.665Z,31.93
2018-05-11T10:58:20.850Z,34.00
2018-05-11T11:00:48.365Z,34.17
2018-05-11T11:03:15.931Z,33.66
2018-05-11T11:05:43.440Z,35.68
2018-05-11T11:08:10.940Z,38.09
2018-05-11T11:10:38.476Z,35.16
2018-05-11T11:13:05.973Z,30.44
2018-05-11T11:15:33.571Z,29.55
2018-05-11T11:18:01.121Z,29.71
2018-05-11T11:20:28.619Z,28.28
2018-05-11T11:22:56.124Z,28.30
2018-05-11T11:25:23.640Z,29.38
2018-05-11T11:27:51.252Z,28.49
2018-05-11T11:30:18.743Z,29.76
2018-05-11T11:32:46.255Z,29.57
2018-05-11T11:35:13.807Z,29.48
2018-05-11T11:37:41.328Z,28.31
2018-05-11T11:40:08.831Z,28.08
2018-05-11T11:42:36.520Z,28.31
2018-05-11T11:45:04.011Z,28.57
2018-05-11T11:47:31.538Z,27.73
2018-05-11T11:49:59.100Z,27.58
2018-05-11T11:52:26.600Z,26.90
2018-05-11T11:54:54.100Z,27.51
2018-05-11T11:57:21.609Z,30.39
2018-05-11T11:59:49.126Z,33.04
2018-05-11T12:02:16.627Z,35.67
2018-05-11T12:04:44.151Z,37.46
2018-05-11T12:07:11.743Z,39.18
2018-05-11T12:09:39.261Z,39.53
2018-05-11T12:12:06.819Z,41.12
2018-05-11T12:14:34.575Z,41.41
2018-05-11T12:17:02.087Z,42.52
2018-05-11T12:19:29.683Z,45.91
2018-05-11T12:21:57.209Z,49.44
2018-05-11T12:24:24.732Z,52.71
2018-05-11T12:26:52.363Z,57.28
2018-05-11T12:29:19.869Z,61.63
2018-05-11T12:31:47.439Z,64.16
2018-05-11T12:34:14.937Z,63.38
2018-05-11T12:36:42.440Z,62.91
2018-05-11T12:39:10.085Z,63.74
2018-05-11T12:41:37.590Z,65.44
2018-05-11T12:44:05.123Z,66.96
2018-05-11T12:46:32.662Z,70.76
2018-05-11T12:49:00.208Z,70.85
2018-05-11T12:51:28.028Z,70.30
2018-05-11T12:53:55.563Z,68.55
2018-05-11T12:56:23.101Z,67.41
2018-05-11T12:58:50.608Z,68.36
2018-05-11T13:01:18.095Z,70.39
2018-05-11T13:03:45.741Z,69.99
2018-05-11T13:06:14.052Z,71.86
2018-05-11T13:08:41.645Z,72.86
2018-05-11T13:11:09.191Z,75.60
2018-05-11T13:13:36.694Z,71.86
2018-05-11T13:16:04.221Z,71.66
2018-05-11T13:18:31.791Z,69.69
2018-05-11T13:20:59.336Z,70.67
2018-05-11T13:23:26.911Z,70.56
2018-05-11T13:25:54.426Z,69.81
2018-05-11T13:28:21.928Z,70.82
2018-05-11T13:30:49.499Z,69.54
2018-05-11T13:33:17.003Z,68.71
2018-05-11T13:35:44.569Z,67.61
2018-05-11T13:38:12.080Z,67.96
2018-05-11T13:40:39.725Z,67.07
2018-05-11T13:43:07.271Z,67.76
2018-05-11T13:45:34.864Z,68.31
2018-05-11T13:48:02.366Z,68.48
2018-05-11T13:50:29.868Z,67.79
2018-05-11T13:52:57.411Z,68.03
2018-05-11T13:55:24.919Z,68.21
2018-05-11T13:57:52.453Z,68.43
2018-05-11T14:00:19.963Z,66.83
2018-05-11T14:02:47.474Z,66.88
2018-05-11T14:05:14.985Z,65.73
2018-05-11T14:07:42.500Z,65.56
2018-05-11T14:10:10.045Z,64.01
2018-05-11T14:12:37.586Z,61.26
2018-05-11T14:15:05.164Z,61.34
2018-05-11T14:17:32.693Z,60.61
2018-05-11T14:20:00.206Z,58.24
2018-05-11T14:22:27.743Z,60.02
2018-05-11T14:24:55.259Z,60.92
2018-05-11T14:27:22.783Z,60.25
2018-05-11T14:29:50.300Z,59.87
2018-05-11T14:32:17.803Z,59.16
2018-05-11T14:34:45.321Z,59.18
2018-05-11T14:37:12.832Z,59.91
2018-05-11T14:39:40.343Z,59.30
2018-05-11T14:42:07.884Z,58.68
2018-05-11T14:44:35.387Z,57.90
2018-05-11T14:47:02.998Z,58.01
2018-05-11T14:49:30.545Z,57.91
2018-05-11T14:51:58.111Z,59.73
2018-05-11T14:54:25.635Z,58.12
2018-05-11T14:56:53.175Z,58.49
2018-05-11T14:59:20.687Z,60.07
2018-05-11T15:01:48.521Z,59.40
2018-05-11T15:04:16.191Z,59.66
2018-05-11T15:06:43.869Z,59.91
2018-05-11T15:09:11.444Z,60.08
2018-05-11T15:11:38.983Z,61.00
2018-05-11T15:14:06.505Z,60.60
2018-05-11T15:16:34.046Z,60.23
2018-05-11T15:19:01.784Z,58.87
2018-05-11T15:21:29.363Z,58.41
2018-05-11T15:23:56.984Z,58.32
2018-05-11T15:26:24.810Z,57.28
2018-05-11T15:28:52.556Z,57.54
2018-05-11T15:31:20.130Z,58.84
2018-05-11T15:33:47.817Z,59.83
2018-05-11T15:36:15.777Z,60.07
2018-05-11T15:38:43.349Z,60.49
2018-05-11T15:41:10.859Z,59.87
2018-05-11T15:43:38.388Z,59.80
2018-05-11T15:46:05.952Z,59.26
2018-05-11T15:48:33.451Z,59.11
2018-05-11T15:51:00.952Z,59.96
2018-05-11T15:53:28.514Z,59.94
2018-05-11T15:55:56.065Z,60.17
2018-05-11T15:58:23.622Z,60.69
2018-05-11T16:00:51.165Z,61.17
2018-05-11T16:03:18.689Z,61.76
2018-05-11T16:05:46.220Z,62.45
2018-05-11T16:08:13.740Z,61.81
2018-05-11T16:10:41.914Z,62.21
2018-05-11T16:13:09.420Z,61.45
2018-05-11T16:15:36.985Z,60.97
2018-05-11T16:18:04.500Z,60.74
2018-05-11T16:20:32.083Z,60.98
2018-05-11T16:22:59.596Z,61.31
2018-05-11T16:25:27.138Z,61.28
2018-05-11T16:27:54.703Z,61.42
2018-05-11T16:30:22.278Z,61.33
2018-05-11T16:32:49.795Z,60.44
2018-05-11T16:35:17.300Z,61.74
2018-05-11T16:37:44.838Z,60.83
2018-05-11T16:40:12.351Z,60.52
2018-05-11T16:42:39.905Z,60.18
2018-05-11T16:45:07.467Z,59.84
2018-05-11T16:47:34.975Z,60.13
2018-05-11T16:50:02.555Z,60.14
2018-05-11T16:52:30.130Z,60.24
2018-05-11T16:54:57.643Z,59.94
2018-05-11T16:57:25.145Z,60.04
2018-05-11T16:59:52.648Z,59.75
2018-05-11T17:02:20.152Z,59.72
2018-05-11T17:04:47.694Z,59.69
2018-05-11T17:07:15.511Z,59.58
2018-05-11T17:09:43.038Z,59.65
2018-05-11T17:12:10.806Z,59.77
2018-05-11T17:14:38.332Z,59.78
2018-05-11T17:17:05.895Z,60.64
2018-05-11T17:19:33.406Z,61.07
2018-05-11T17:22:00.932Z,62.09
2018-05-11T17:24:28.448Z,62.00
2018-05-11T17:26:56.007Z,61.99
2018-05-11T17:29:23.560Z,62.94
2018-05-11T17:31:51.088Z,62.70
2018-05-11T17:34:18.653Z,63.30
2018-05-11T17:36:47.356Z,63.89
2018-05-11T17:39:14.899Z,63.62
2018-05-11T17:41:42.414Z,63.69
2018-05-11T17:44:09.980Z,63.42
2018-05-11T17:46:37.853Z,63.76
2018-05-11T17:49:05.431Z,64.23
2018-05-11T17:51:32.955Z,64.55
2018-05-11T17:54:00.519Z,64.38
2018-05-11T17:56:28.091Z,64.09
2018-05-11T17:58:55.634Z,63.91
2018-05-11T18:01:23.240Z,64.09
2018-05-11T18:03:50.773Z,64.16
2018-05-11T18:06:18.606Z,64.50
2018-05-11T18:08:46.345Z,64.38
2018-05-11T18:11:13.897Z,63.91
2018-05-11T18:13:41.579Z,63.95
2018-05-11T18:16:09.100Z,64.00
2018-05-11T18:18:36.612Z,63.85
2018-05-11T18:21:04.797Z,63.43
2018-05-11T18:23:32.334Z,63.45
2018-05-11T18:25:59.870Z,63.61
2018-05-11T18:28:27.394Z,63.81
2018-05-11T18:30:55.282Z,63.64
2018-05-11T18:33:22.841Z,63.73
2018-05-11T18:35:50.419Z,63.72
2018-05-11T18:38:17.976Z,63.36
2018-05-11T18:40:45.600Z,63.60
2018-05-11T18:43:13.121Z,64.10
2018-05-11T18:45:40.668Z,64.02
2018-05-11T18:48:08.194Z,64.03
2018-05-11T18:50:35.776Z,64.51
2018-05-11T18:53:03.708Z,64.69
2018-05-11T18:55:31.366Z,65.12
2018-05-11T18:57:59.311Z,65.74
2018-05-11T19:00:27.164Z,66.24
2018-05-11T19:02:55.442Z,66.36
2018-05-11T19:05:23.020Z,66.36
2018-05-11T19:07:50.992Z,66.58
2018-05-11T19:10:18.552Z,66.80
2018-05-11T19:12:46.096Z,66.96
2018-05-11T19:15:13.653Z,67.10
2018-05-11T19:17:41.364Z,66.63
2018-05-11T19:20:10.805Z,66.46
2018-05-11T19:22:38.372Z,66.07
2018-05-11T19:25:06.493Z,66.04
2018-05-11T19:27:34.955Z,66.22
2018-05-11T19:30:04.055Z,66.19
2018-05-11T19:32:31.627Z,65.92
2018-05-11T19:35:00.032Z,66.12
2018-05-11T19:37:27.607Z,66.29
2018-05-11T19:39:56.112Z,66.83
2018-05-11T19:42:23.767Z,67.37
2018-05-11T19:44:52.292Z,67.76
2018-05-11T19:47:19.893Z,68.02
2018-05-11T19:49:47.440Z,68.04
2018-05-11T19:52:14.963Z,68.03
2018-05-11T19:54:42.547Z,67.95
2018-05-11T19:57:10.068Z,68.09
2018-05-11T19:59:38.204Z,68.35
2018-05-11T20:02:05.774Z,68.20
2018-05-11T20:04:33.280Z,68.51
2018-05-11T20:07:00.797Z,68.90
2018-05-11T20:09:28.306Z,69.41
2018-05-11T20:11:55.832Z,70.03
2018-05-11T20:14:24.070Z,70.14
2018-05-11T20:16:51.581Z,69.47
2018-05-11T20:19:19.208Z,70.02
2018-05-11T20:21:46.780Z,70.27
2018-05-11T20:24:14.293Z,70.79
2018-05-11T20:26:41.887Z,70.65
2018-05-11T20:29:09.451Z,70.21
2018-05-11T20:31:37.063Z,70.42
2018-05-11T20:34:04.577Z,70.99
2018-05-11T20:36:32.083Z,72.29
2018-05-11T20:38:59.898Z,72.29
2018-05-11T20:41:27.481Z,72.33
2018-05-11T20:43:54.956Z,72.87
2018-05-11T20:46:22.483Z,72.59
2018-05-11T20:48:50.001Z,72.22
2018-05-11T20:51:17.752Z,71.80
2018-05-11T20:53:45.344Z,71.90
2018-05-11T20:56:13.160Z,71.35
2018-05-11T20:58:40.678Z,71.10
2018-05-11T21:01:08.241Z,70.65
2018-05-11T21:03:35.999Z,71.08
2018-05-11T21:06:03.629Z,72.12
2018-05-11T21:08:31.139Z,73.03
2018-05-11T21:10:58.707Z,73.13
2018-05-11T21:13:26.216Z,73.36
2018-05-11T21:15:53.726Z,73.98
2018-05-11T21:18:21.231Z,73.38
2018-05-11T21:20:48.766Z,73.11
2018-05-11T21:23:16.275Z,73.54
2018-05-11T21:25:43.813Z,73.02
2018-05-11T21:28:11.328Z,73.29
2018-05-11T21:30:38.919Z,73.82
2018-05-11T21:33:06.424Z,73.93
2018-05-11T21:35:33.923Z,74.25
2018-05-11T21:38:01.524Z,73.90
2018-05-11T21:40:29.075Z,73.59
2018-05-11T21:42:56.808Z,73.27
2018-05-11T21:45:24.303Z,73.39
2018-05-11T21:47:51.815Z,73.42
2018-05-11T21:50:19.321Z,73.67
2018-05-11T21:52:46.840Z,73.69
2018-05-11T21:55:14.404Z,72.54
2018-05-11T21:57:41.951Z,72.78
2018-05-11T22:00:09.511Z,73.52
2018-05-11T22:02:37.027Z,73.54
2018-05-11T22:05:04.574Z,73.03
2018-05-11T22:07:32.131Z,72.77
2018-05-11T22:09:59.954Z,73.07
2018-05-11T22:12:27.458Z,72.62
2018-05-11T22:14:55.255Z,72.80
2018-05-11T22:17:22.770Z,72.81
2018-05-11T22:19:50.574Z,72.24
2018-05-11T22:22:18.115Z,72.02
2018-05-11T22:24:45.697Z,71.85
2018-05-11T22:27:13.149Z,71.86
2018-05-11T22:29:40.812Z,71.10
2018-05-11T22:32:08.328Z,71.12
2018-05-11T22:34:35.832Z,72.05
2018-05-11T22:37:03.331Z,71.99
2018-05-11T22:39:30.880Z,72.30
2018-05-11T22:41:58.386Z,74.61
2018-05-11T22:44:25.938Z,74.78
2018-05-11T22:46:53.434Z,73.74
2018-05-11T22:49:20.981Z,72.93
2018-05-11T22:51:48.494Z,71.92
2018-05-11T22:54:16.022Z,71.92
2018-05-11T22:56:43.533Z,71.64
2018-05-11T22:59:11.038Z,71.71
2018-05-11T23:01:38.547Z,71.73
2018-05-11T23:04:06.110Z,71.45
2018-05-11T23:06:33.603Z,71.62
2018-05-11T23:09:01.115Z,71.75
2018-05-11T23:11:28.612Z,71.63
2018-05-11T23:13:56.120Z,70.85
2018-05-11T23:16:23.620Z,71.25
2018-05-11T23:18:51.131Z,71.54
2018-05-11T23:21:18.639Z,71.63
2018-05-11T23:23:46.147Z,71.71
2018-05-11T23:26:13.672Z,72.18
2018-05-11T23:28:41.176Z,71.13
2018-05-11T23:31:08.678Z,71.01
2018-05-11T23:33:36.187Z,71.73
2018-05-11T23:36:03.706Z,72.02
2018-05-11T23:38:31.202Z,73.19
2018-05-11T23:40:58.713Z,73.59
2018-05-11T23:43:26.243Z,73.65
2018-05-11T23:45:53.767Z,74.61
2018-05-11T23:48:21.366Z,75.32
2018-05-11T23:50:48.911Z,75.72
2018-05-11T23:53:16.429Z,75.61
2018-05-11T23:55:43.964Z,75.96
2018-05-11T23:58:11.482Z,76.15
